Date,TemperatureHighF,TemperatureAvgF,TemperatureLowF,DewpointHighF,DewpointAvgF,DewpointLowF,HumidityHigh,HumidityAvg,HumidityLow,PressureMaxIn,PressureMinIn,WindSpeedMaxMPH,WindSpeedAvgMPH,GustSpeedMaxMPH,PrecipitationSumIn
2013-4-1,48.0,37.4,32.7,28.7,25.0,21.1,77,62,39,29.88,29.81,4,1,11,0.00
2013-4-2,37.0,34.6,32.4,25.2,23.0,20.4,74,63,51,30.05,29.87,2,1,7,0.00
2013-4-3,40.3,36.6,33.4,27.1,25.3,23.6,72,64,54,30.05,30.04,4,1,11,0.00
2013-4-4,38.5,36.6,34.5,29.9,25.8,20.9,76,65,52,29.98,29.89,4,1,10,0.02
2013-4-5,44.2,37.4,34.3,30.6,27.0,23.3,80,66,47,30.10,29.88,4,1,10,0.00
2013-4-6,56.3,46.7,35.2,31.6,29.4,26.2,84,55,33,30.23,30.10,4,1,8,0.00
2013-4-7,56.5,47.2,29.8,30.1,22.4,12.2,75,41,20,30.26,29.93,4,1,8,0.00
2013-4-8,57.7,48.0,39.6,33.8,28.4,24.4,77,49,30,29.81,29.52,4,1,9,0.05
2013-4-9,45.9,43.4,39.7,39.4,37.6,33.6,83,80,77,29.53,29.45,2,0,7,0.06
2013-4-10,48.6,43.8,38.3,42.0,38.8,34.2,93,83,69,29.69,29.41,3,0,7,0.23
2013-4-11,48.9,44.8,42.4,44.7,42.4,40.6,94,91,84,29.42,29.33,4,1,8,0.12
2013-4-12,53.1,47.0,42.6,48.1,44.1,40.5,95,90,74,29.73,29.28,4,1,10,0.43
2013-4-13,44.8,44.6,44.4,43.0,42.8,42.5,94,93,93,29.75,29.72,0,0,2,0.43
2013-4-14,70.2,62.5,54.3,51.1,48.7,45.5,73,61,45,29.93,29.85,10,4,18,0.01
2013-4-15,59.2,53.5,49.5,48.0,45.8,44.0,83,75,67,30.03,29.92,5,2,12,0.00
2013-4-16,54.9,51.5,49.1,45.5,44.6,43.8,82,77,67,30.08,29.94,4,1,9,0.00
2013-4-17,61.0,54.7,49.1,51.8,48.6,44.0,95,80,64,30.07,29.74,8,3,16,0.00
2013-4-18,57.4,51.1,45.9,42.7,36.2,29.2,72,57,40,30.06,29.76,8,2,20,0.04
2013-4-19,54.3,50.5,45.3,41.7,39.0,36.2,77,65,53,30.28,30.06,4,2,11,0.00
2013-4-20,60.3,46.6,37.6,39.0,33.7,29.8,86,63,32,30.52,30.35,2,0,4,0.00
2013-4-21,64.2,55.6,38.7,40.6,33.7,28.6,82,47,28,30.35,30.00,5,2,13,0.00
2013-4-22,53.1,49.7,43.2,47.2,44.2,38.4,89,81,73,30.01,29.92,6,2,11,0.00
2013-4-23,65.8,56.6,50.4,49.1,47.5,44.9,92,73,49,30.20,29.96,5,1,8,0.00
2013-4-24,72.5,61.3,48.7,53.9,51.5,44.5,90,72,50,30.25,30.18,5,1,9,0.04
2013-4-25,73.4,59.1,54.1,53.7,49.2,46.4,91,71,43,30.24,30.00,7,2,14,0.00
2013-4-26,55.4,46.4,40.6,47.8,33.5,29.3,77,61,44,30.02,29.88,4,0,7,0.16
2013-4-27,59.0,48.1,39.0,39.1,35.5,31.6,80,63,38,30.09,29.88,4,1,10,0.03
2013-4-28,55.9,49.0,34.3,38.7,32.4,27.1,87,54,33,30.09,29.86,7,2,13,0.00
2013-4-29,59.2,50.8,42.1,41.7,34.4,30.8,83,55,34,30.15,29.86,6,2,12,0.00
2013-4-30,45.1,44.4,43.5,38.0,37.2,36.1,76,76,75,30.30,30.29,2,0,4,0.00